Arlington, WA (98223)

9:29 AM PDT on August 27, 2014 (GMT -0700)
5 Miles NE of Arlington, Washington | Change Station
CLOSE
Current Station
Personal Weather Station
Location: Arlington, WA
Elevation: 453 ft
Nearby Weather Stations

Elev 453 ft 48.26 °N, 122.07 °W | Updated 4 minutes ago

Clear
Clear
71.2 °F
Feels Like 76 °F
N
2.0
Wind Variable Wind from SSE
Gusts 3.0 mph

Today
High -- | Low -- °F
--% Chance of Precip.
Yesterday
High -- | Low -- °F
Precip. -- in
6:18 AM 7:58 PM
Waxing Crescent, 4% visible
Pressure 30.06 in
Visibility 10.0 miles
Clouds Clear
Heat Index 76 °F
Dew Point 56 °F
Humidity 59%
Rainfall 0.00 in
Snow Depth Not available.
UV 3 out of 12
Pollen 3.10 out of 12
PM2.5 Good
Flu Activity Not available.
METAR KAWO 271615Z AUTO 00000KT 10SM CLR 19/14 A3006 RMK AO1

More Conditions Fewer Conditions

Pressure 30.06 in
Visibility 10.0 miles
Clouds Clear
Heat Index 76 °F
Dew Point 56 °F
Humidity 59%
Rainfall 0.00 in
Snow Depth Not available.
UV 3 out of 12
Pollen 3.10 out of 12
PM2.5 Good
Flu Activity Not available.
METAR KAWO 271615Z AUTO 00000KT 10SM CLR 19/14 A3006 RMK AO1

More Conditions Fewer Conditions

10-Day Weather Forecast

Almanac

Astronomy

Aug. 27, 2014 Rise Set
Actual Time 6:18 AM PDT 7:58 PM PDT
Civil Twilight 5:46 AM PDT 8:31 PM PDT
Nautical Twilight 5:05 AM PDT 9:11 PM PDT
Astronomical Twilight 4:21 AM PDT 9:55 PM PDT
Moon 8:32 AM PDT 8:39 PM PDT
Length of Visible Light 14h 45m
Length of Day
13h 39m
Tomorrow will be 3m 21s shorter.
Waxing Crescent, 4% of the Moon is Illuminated
Today
Waxing Crescent
Sep 2
First Quarter
Sep 8
Full
Sep 15
Last Quarter
Sep 24
New

Today's Extremes

State Highs State Lows

Community

WunderPhotos

Upload Photos

1,747,724 photos uploaded!

Nearby

Air Quality

  Air Quality AQ Index Pollutant
Yesterday Moderate
PM2.5
Yesterday Good
OZONE
Current Good
PM2.5
Wednesday Good
OZONE
Wednesday Good
PM2.5
Thursday Good
OZONE
Thursday Good
PM2.5
Friday Good
OZONE
Friday Good
PM2.5
Saturday Good
OZONE
Saturday Good
PM2.5

Snow Depth

Station Depth Elevation
Alpine Meadows 0 in 3500 ft
Mf Nooksack 0 in 4980 ft
Lyman Lake 0 in 5900 ft
Stevens Pass 0 in 4070 ft
Dungeness 0 in 4100 ft

Earthquake Activity

City Distance Mag. Time & Date
No recent earthquake activity has been reported nearby.
Minimum magnitude displayed is 2.5.

Coastal Water Temperatures

Place Temperature
Port Townsend, WA 53.1 °F
Seattle, WA 55.9 °F
Friday Harbor, WA 53.1 °F
Tacoma, WA 55.0 °F

Nearby Weather Stations